Time;durP1;ratioP1;P1;durP2;ratioP2;P2;SDS_P1;SDS_P2;PMS_P1;PMS_P2;Temp;Humidity;BMP_temperature;BMP_pressure;BME280_temperature;BME280_humidity;BME280_pressure;Samples;Min_cycle;Max_cycle;Signal;HPM_P1;HPM_P2
2021/09/28 00:02:08;;;;;;;10.88;9.55;;;15.40;99.90;;;;;;5032827;28;20030;-75
2021/09/28 00:04:34;;;;;;;12.07;9.15;;;15.40;99.90;;;;;;5032890;28;20124;-75
2021/09/28 00:06:59;;;;;;;11.90;9.50;;;15.40;99.90;;;;;;5033030;28;20061;-75
2021/09/28 00:09:25;;;;;;;13.15;9.85;;;15.40;99.90;;;;;;5033108;28;20026;-75
2021/09/28 00:11:51;;;;;;;12.90;10.02;;;15.50;99.90;;;;;;5032305;28;20068;-75
2021/09/28 00:14:19;;;;;;;12.73;10.00;;;15.40;99.90;;;;;;5032794;28;20075;-74
2021/09/28 00:16:44;;;;;;;11.07;9.68;;;15.40;99.90;;;;;;5032820;28;20028;-75
2021/09/28 00:19:10;;;;;;;17.23;10.38;;;15.40;99.90;;;;;;5042834;28;20029;-75
2021/09/28 00:21:35;;;;;;;15.60;10.27;;;15.20;99.90;;;;;;5032456;28;20494;-75
2021/09/28 00:24:01;;;;;;;14.90;10.85;;;15.20;99.90;;;;;;5015390;28;20072;-75
2021/09/28 00:26:26;;;;;;;11.35;9.50;;;15.30;99.90;;;;;;5033589;28;20087;-74
2021/09/28 00:28:52;;;;;;;12.20;9.88;;;15.20;99.90;;;;;;5015072;28;20049;-74
2021/09/28 00:31:18;;;;;;;13.57;10.90;;;15.20;99.90;;;;;;5014742;28;20533;-75
2021/09/28 00:33:43;;;;;;;11.18;9.98;;;15.20;99.90;;;;;;5032498;28;20030;-74
2021/09/28 00:36:09;;;;;;;13.10;9.68;;;15.20;99.90;;;;;;5032533;28;20490;-74
2021/09/28 00:38:34;;;;;;;13.52;10.38;;;15.10;99.90;;;;;;5023181;28;20036;-74
2021/09/28 00:41:00;;;;;;;13.93;11.82;;;15.00;99.90;;;;;;5037009;28;20029;-74
2021/09/28 00:43:26;;;;;;;15.57;10.13;;;15.00;99.90;;;;;;5016149;28;20029;-75
2021/09/28 00:45:52;;;;;;;10.95;9.50;;;15.00;99.90;;;;;;5052276;28;20025;-74
2021/09/28 00:48:17;;;;;;;16.73;11.77;;;15.00;99.90;;;;;;5052226;28;20036;-73
2021/09/28 00:50:43;;;;;;;13.60;10.20;;;15.00;99.90;;;;;;5051754;28;20024;-73
2021/09/28 00:53:08;;;;;;;15.95;10.27;;;14.90;99.90;;;;;;5037421;28;20096;-74
2021/09/28 00:55:34;;;;;;;13.30;10.77;;;15.00;99.90;;;;;;5032243;28;20033;-74
2021/09/28 00:58:08;;;;;;;15.38;11.98;;;14.90;99.90;;;;;;5014272;28;20021;-74
2021/09/28 01:00:34;;;;;;;15.07;10.85;;;14.80;99.90;;;;;;5031896;28;20562;-74
2021/09/28 01:03:00;;;;;;;14.80;10.07;;;14.80;99.90;;;;;;5031943;28;20108;-74
2021/09/28 01:05:26;;;;;;;13.02;10.38;;;14.80;99.90;;;;;;5032143;28;20120;-74
2021/09/28 01:07:52;;;;;;;13.57;11.05;;;14.70;99.90;;;;;;5014342;28;20109;-74
2021/09/28 01:10:17;;;;;;;15.07;10.27;;;14.80;99.90;;;;;;5032155;28;20044;-74
2021/09/28 01:12:43;;;;;;;14.27;11.45;;;14.60;99.90;;;;;;5031578;28;20030;-74
2021/09/28 01:15:09;;;;;;;13.80;10.60;;;14.60;99.90;;;;;;5014102;28;20091;-74
2021/09/28 01:17:34;;;;;;;14.27;10.30;;;14.70;99.90;;;;;;5031694;28;20041;-74
2021/09/28 01:20:00;;;;;;;15.98;11.52;;;14.70;99.90;;;;;;5031908;28;20029;-74
2021/09/28 01:22:25;;;;;;;15.98;10.98;;;14.80;99.90;;;;;;5031356;28;20025;-75
2021/09/28 01:24:51;;;;;;;17.30;12.00;;;14.70;99.90;;;;;;5013379;28;20026;-75
2021/09/28 01:27:17;;;;;;;16.52;12.65;;;14.80;99.90;;;;;;5031574;28;20442;-75
2021/09/28 01:29:43;;;;;;;14.77;12.02;;;14.80;99.90;;;;;;5040458;28;20031;-74
2021/09/28 01:32:09;;;;;;;15.38;11.85;;;14.90;99.90;;;;;;5036258;28;20380;-75
2021/09/28 01:34:35;;;;;;;15.98;11.73;;;14.90;99.90;;;;;;5032804;28;20448;-74
2021/09/28 01:37:00;;;;;;;15.68;11.90;;;14.90;99.90;;;;;;5014823;28;20472;-75
2021/09/28 01:39:26;;;;;;;17.50;11.52;;;15.00;99.90;;;;;;5032297;28;20025;-74
2021/09/28 01:41:54;;;;;;;14.10;11.52;;;14.90;99.90;;;;;;5031356;28;20041;-73
2021/09/28 01:44:21;;;;;;;15.27;12.27;;;15.00;99.90;;;;;;5040585;28;20103;-74
2021/09/28 01:46:48;;;;;;;15.85;11.93;;;15.10;99.90;;;;;;5033561;28;20112;-74
2021/09/28 01:49:17;;;;;;;13.68;12.10;;;15.10;99.90;;;;;;5051510;28;20044;-75
2021/09/28 01:51:44;;;;;;;17.25;12.60;;;15.10;99.90;;;;;;5030104;28;20018;-75
2021/09/28 01:54:10;;;;;;;20.48;13.70;;;15.10;99.90;;;;;;5031490;28;20396;-74
2021/09/28 01:56:36;;;;;;;16.10;13.80;;;15.10;99.90;;;;;;5013689;28;20041;-74
2021/09/28 01:59:04;;;;;;;17.40;14.30;;;15.10;99.90;;;;;;5031549;28;20034;-75
2021/09/28 02:01:30;;;;;;;18.15;13.80;;;15.10;99.90;;;;;;5013331;28;20485;-74
2021/09/28 02:03:55;;;;;;;18.88;14.75;;;15.20;99.90;;;;;;5014073;28;20097;-75
2021/09/28 02:06:24;;;;;;;16.30;13.52;;;15.30;99.90;;;;;;5034920;28;20513;-75
2021/09/28 02:08:51;;;;;;;20.15;13.95;;;15.20;99.90;;;;;;5040655;28;20033;-76
2021/09/28 02:11:17;;;;;;;18.75;13.85;;;15.10;99.90;;;;;;5013544;28;20105;-76
2021/09/28 02:13:42;;;;;;;17.75;13.32;;;15.10;99.90;;;;;;5031192;28;20103;-75
2021/09/28 02:16:09;;;;;;;19.63;12.73;;;15.00;99.90;;;;;;5013534;28;20071;-75
2021/09/28 02:18:35;;;;;;;14.05;11.57;;;15.00;99.90;;;;;;5031613;28;20029;-76
2021/09/28 02:21:00;;;;;;;13.85;11.20;;;15.00;99.90;;;;;;5013340;28;20411;-75
2021/09/28 02:23:26;;;;;;;12.77;10.50;;;14.90;99.90;;;;;;5030929;28;20064;-75
2021/09/28 02:25:52;;;;;;;13.93;11.02;;;15.10;99.90;;;;;;5023015;28;20079;-74
2021/09/28 02:28:18;;;;;;;18.33;10.77;;;15.00;99.90;;;;;;5032558;28;20075;-74
2021/09/28 02:30:44;;;;;;;13.70;9.23;;;14.90;99.90;;;;;;5043234;28;20332;-75
2021/09/28 02:33:09;;;;;;;11.75;9.63;;;14.80;99.90;;;;;;5032033;28;20123;-74
2021/09/28 02:35:35;;;;;;;16.42;9.48;;;14.70;99.90;;;;;;5045231;28;20060;-74
2021/09/28 02:38:01;;;;;;;11.60;8.55;;;14.60;99.90;;;;;;5041825;28;20039;-75
2021/09/28 02:40:27;;;;;;;10.30;7.68;;;14.70;99.90;;;;;;5047678;28;20100;-74
2021/09/28 02:42:53;;;;;;;9.07;6.95;;;14.60;99.90;;;;;;5029107;28;20025;-74
2021/09/28 02:45:19;;;;;;;6.63;5.13;;;14.50;99.90;;;;;;5047026;28;20474;-74
2021/09/28 02:47:45;;;;;;;8.65;6.13;;;14.70;99.90;;;;;;5049152;28;20047;-74
2021/09/28 02:50:10;;;;;;;6.78;4.68;;;14.70;99.90;;;;;;5049666;28;20514;-75
2021/09/28 02:52:36;;;;;;;5.53;4.65;;;14.60;99.90;;;;;;5029702;28;20036;-75
2021/09/28 02:55:02;;;;;;;5.22;4.15;;;14.60;99.90;;;;;;5054318;28;20037;-74
2021/09/28 02:57:28;;;;;;;4.55;3.08;;;14.60;99.90;;;;;;5031786;28;20025;-75
2021/09/28 02:59:53;;;;;;;3.17;2.63;;;14.50;99.90;;;;;;5048036;28;20021;-75
2021/09/28 03:02:19;;;;;;;2.00;1.65;;;14.50;99.90;;;;;;5034068;28;20035;-75
2021/09/28 03:04:44;;;;;;;3.15;1.80;;;14.50;99.90;;;;;;5033984;28;20483;-75
2021/09/28 03:07:10;;;;;;;2.38;1.40;;;14.50;99.90;;;;;;5016452;28;20071;-75
2021/09/28 03:09:35;;;;;;;3.47;1.40;;;14.30;99.90;;;;;;5024916;28;20025;-74
2021/09/28 03:12:02;;;;;;;1.23;1.13;;;14.30;99.90;;;;;;5039448;28;20018;-74
2021/09/28 03:14:28;;;;;;;2.38;1.15;;;14.30;99.90;;;;;;5037407;28;20119;-74
2021/09/28 03:16:53;;;;;;;1.17;0.95;;;14.20;99.90;;;;;;5026179;28;20104;-75
2021/09/28 03:19:20;;;;;;;1.13;0.90;;;14.10;99.90;;;;;;5036514;28;20035;-74
2021/09/28 03:21:46;;;;;;;2.88;1.00;;;14.10;99.90;;;;;;5030974;28;20452;-75
2021/09/28 03:24:11;;;;;;;2.53;1.30;;;13.90;99.90;;;;;;5037116;28;20048;-74
2021/09/28 03:26:37;;;;;;;1.60;1.30;;;14.00;99.90;;;;;;5045962;28;20064;-75
2021/09/28 03:29:02;;;;;;;2.20;1.30;;;14.10;99.90;;;;;;5027152;28;20406;-75
2021/09/28 03:31:28;;;;;;;2.40;1.20;;;14.20;99.90;;;;;;5043999;28;20025;-75
2021/09/28 03:33:53;;;;;;;3.08;1.50;;;14.30;99.90;;;;;;5050610;28;20024;-74
2021/09/28 03:36:19;;;;;;;3.95;1.30;;;14.30;99.90;;;;;;5043724;28;20029;-74
2021/09/28 03:38:45;;;;;;;1.95;1.65;;;14.30;99.90;;;;;;5047106;28;20033;-75
2021/09/28 03:41:11;;;;;;;1.88;1.60;;;14.20;99.90;;;;;;5043369;28;20120;-75
2021/09/28 03:43:36;;;;;;;3.28;1.67;;;14.10;99.90;;;;;;5043150;28;20028;-74
2021/09/28 03:46:02;;;;;;;1.92;1.60;;;14.10;99.90;;;;;;5063342;28;20024;-75
2021/09/28 03:48:27;;;;;;;4.60;1.83;;;14.00;99.90;;;;;;5021996;28;20029;-75
2021/09/28 03:50:53;;;;;;;2.03;1.77;;;13.90;99.90;;;;;;5045733;28;20029;-75
2021/09/28 03:53:19;;;;;;;4.78;2.00;;;13.70;99.90;;;;;;5022260;28;20065;-75
2021/09/28 03:55:44;;;;;;;3.10;1.60;;;13.70;99.90;;;;;;5044105;28;20431;-75
2021/09/28 03:58:12;;;;;;;2.42;1.50;;;13.80;99.90;;;;;;5033513;28;20071;-74
2021/09/28 04:00:38;;;;;;;2.35;1.70;;;13.70;99.90;;;;;;5052940;28;20017;-74
2021/09/28 04:03:04;;;;;;;4.38;2.00;;;13.60;99.90;;;;;;5039423;28;20404;-74
2021/09/28 04:05:30;;;;;;;2.35;1.80;;;13.50;99.90;;;;;;5043802;28;20108;-76
2021/09/28 04:07:56;;;;;;;3.08;2.40;;;13.60;99.90;;;;;;5040278;28;20447;-75
2021/09/28 04:10:21;;;;;;;4.25;2.00;;;13.70;99.90;;;;;;5053039;28;20104;-75
2021/09/28 04:12:47;;;;;;;2.28;2.03;;;13.80;99.90;;;;;;5020599;28;20021;-76
2021/09/28 04:15:13;;;;;;;2.97;2.00;;;13.60;99.90;;;;;;5016211;28;20538;-75
2021/09/28 04:17:39;;;;;;;3.38;2.00;;;13.60;99.90;;;;;;5047999;28;20579;-76
2021/09/28 04:20:05;;;;;;;4.72;2.30;;;13.60;99.90;;;;;;5042037;28;20029;-75
2021/09/28 04:22:31;;;;;;;2.83;2.03;;;13.60;99.90;;;;;;5039150;28;20030;-76
2021/09/28 04:24:56;;;;;;;3.05;2.08;;;13.70;99.90;;;;;;5026454;28;20048;-75
2021/09/28 04:27:22;;;;;;;3.55;2.15;;;13.70;99.90;;;;;;5046151;28;20021;-75
2021/09/28 04:29:47;;;;;;;2.67;2.10;;;13.70;99.90;;;;;;5023288;28;20493;-75
2021/09/28 04:32:13;;;;;;;3.13;2.50;;;13.70;99.90;;;;;;5037591;28;20701;-74
2021/09/28 04:34:38;;;;;;;3.47;2.80;;;13.60;99.90;;;;;;5032652;28;20026;-74
2021/09/28 04:37:05;;;;;;;3.25;2.10;;;13.50;99.90;;;;;;5034277;28;20029;-75
2021/09/28 04:39:31;;;;;;;3.55;2.40;;;13.50;99.90;;;;;;5034697;28;20033;-76
2021/09/28 04:41:57;;;;;;;3.00;2.33;;;13.50;99.90;;;;;;5038906;28;20025;-75
2021/09/28 04:44:22;;;;;;;4.97;2.60;;;13.50;99.90;;;;;;5034528;28;20027;-76
2021/09/28 04:46:48;;;;;;;2.83;2.38;;;13.40;99.90;;;;;;5021192;28;20423;-75
2021/09/28 04:49:13;;;;;;;4.00;2.42;;;13.50;99.90;;;;;;5025537;28;20030;-74
2021/09/28 04:51:39;;;;;;;4.20;2.70;;;13.50;99.90;;;;;;5045504;28;20045;-76
2021/09/28 04:54:04;;;;;;;4.93;2.65;;;13.50;99.90;;;;;;5041432;28;20115;-75
2021/09/28 04:56:30;;;;;;;4.13;2.38;;;13.40;99.90;;;;;;5020973;28;20025;-75
2021/09/28 04:58:55;;;;;;;3.28;2.50;;;13.50;99.90;;;;;;5042831;28;20565;-76
2021/09/28 05:01:21;;;;;;;2.83;2.15;;;13.50;99.90;;;;;;5017098;28;20120;-76
2021/09/28 05:03:47;;;;;;;3.30;2.45;;;13.50;99.90;;;;;;5042588;28;20060;-75
2021/09/28 05:06:13;;;;;;;4.22;2.85;;;13.40;99.90;;;;;;5048263;28;20387;-75
2021/09/28 05:08:39;;;;;;;3.75;2.60;;;13.40;99.90;;;;;;5042883;28;20036;-75
2021/09/28 05:11:08;;;;;;;4.10;2.60;;;13.40;99.90;;;;;;5027306;28;20029;-75
2021/09/28 05:13:34;;;;;;;3.67;2.75;;;13.30;99.90;;;;;;5041556;28;20040;-75
2021/09/28 05:15:59;;;;;;;4.68;2.80;;;13.30;99.90;;;;;;5038732;28;20391;-75
2021/09/28 05:18:25;;;;;;;5.47;3.08;;;13.20;99.90;;;;;;5024759;28;20100;-75
2021/09/28 05:20:50;;;;;;;4.88;2.92;;;13.20;99.90;;;;;;5045189;28;20031;-75
2021/09/28 05:23:17;;;;;;;5.60;3.40;;;13.10;99.90;;;;;;5014430;28;20079;-75
2021/09/28 05:25:43;;;;;;;3.90;3.00;;;13.10;99.90;;;;;;5045034;28;20104;-75
2021/09/28 05:28:08;;;;;;;5.35;3.08;;;13.20;99.90;;;;;;5041554;28;20105;-76
2021/09/28 05:30:34;;;;;;;5.18;3.50;;;13.20;99.90;;;;;;5038281;28;20039;-75
2021/09/28 05:32:59;;;;;;;7.05;3.42;;;13.20;99.90;;;;;;5042380;28;20036;-74
2021/09/28 05:35:25;;;;;;;5.30;4.18;;;13.10;99.90;;;;;;5027278;28;20021;-76
2021/09/28 05:37:52;;;;;;;4.32;3.50;;;13.20;99.90;;;;;;5023184;28;20578;-75
2021/09/28 05:40:18;;;;;;;5.40;3.85;;;13.10;99.90;;;;;;5038432;28;20017;-75
2021/09/28 05:42:44;;;;;;;5.82;4.18;;;13.10;99.90;;;;;;5033663;28;20033;-75
2021/09/28 05:45:10;;;;;;;6.43;4.43;;;13.10;99.90;;;;;;5049008;28;20077;-76
2021/09/28 05:47:36;;;;;;;4.80;4.30;;;13.10;99.90;;;;;;5040982;28;20483;-74
2021/09/28 05:50:02;;;;;;;8.30;4.40;;;13.40;99.90;;;;;;5017864;28;20029;-74
2021/09/28 05:52:28;;;;;;;6.38;4.88;;;13.20;99.90;;;;;;5040403;28;20479;-75
2021/09/28 05:54:53;;;;;;;9.35;5.57;;;13.20;99.90;;;;;;5035705;28;20025;-75
2021/09/28 05:57:23;;;;;;;7.43;5.20;;;13.20;99.90;;;;;;5031775;28;20053;-75
2021/09/28 05:59:49;;;;;;;7.25;5.65;;;13.30;99.90;;;;;;5044838;28;20399;-73
2021/09/28 06:02:18;;;;;;;8.05;5.63;;;13.70;99.90;;;;;;5040858;28;20013;-74
2021/09/28 06:04:44;;;;;;;7.28;6.00;;;13.30;99.90;;;;;;5017056;28;20080;-75
2021/09/28 06:07:11;;;;;;;8.48;5.82;;;13.30;99.90;;;;;;5041250;28;20026;-74
2021/09/28 06:09:39;;;;;;;6.60;5.80;;;13.20;99.90;;;;;;5038728;28;20036;-75
2021/09/28 06:12:07;;;;;;;9.20;5.53;;;13.20;99.90;;;;;;5044870;28;20028;-76
2021/09/28 06:14:33;;;;;;;7.65;6.13;;;13.10;99.90;;;;;;5048473;28;20021;-75
2021/09/28 06:17:00;;;;;;;12.32;6.00;;;13.10;99.90;;;;;;5045869;28;20031;-75
2021/09/28 06:19:26;;;;;;;7.78;6.00;;;13.20;99.90;;;;;;5051224;28;20128;-75
2021/09/28 06:21:52;;;;;;;7.43;5.80;;;13.30;99.90;;;;;;5028056;28;20021;-75
2021/09/28 06:24:18;;;;;;;9.15;6.10;;;13.30;99.90;;;;;;5037595;28;20075;-75
2021/09/28 06:26:44;;;;;;;7.82;6.25;;;13.40;99.90;;;;;;5045963;28;20068;-74
2021/09/28 06:29:10;;;;;;;8.55;6.07;;;13.50;99.90;;;;;;5041652;28;20437;-75
2021/09/28 06:31:35;;;;;;;9.00;6.05;;;13.60;99.90;;;;;;5044025;28;20029;-75
2021/09/28 06:34:01;;;;;;;6.82;5.72;;;13.60;99.90;;;;;;5048380;28;20044;-75
2021/09/28 06:36:27;;;;;;;9.43;6.18;;;13.50;99.90;;;;;;5028688;28;20025;-74
2021/09/28 06:38:52;;;;;;;8.95;5.90;;;13.30;99.90;;;;;;5041364;28;20017;-75
2021/09/28 06:41:19;;;;;;;10.38;6.03;;;13.30;99.90;;;;;;5044096;28;20025;-75
2021/09/28 06:43:45;;;;;;;7.95;5.72;;;13.40;99.90;;;;;;5029883;28;20029;-74
2021/09/28 06:46:11;;;;;;;9.27;6.55;;;13.50;99.90;;;;;;5045640;28;20037;-75
2021/09/28 06:48:36;;;;;;;10.05;5.40;;;13.60;99.90;;;;;;5041378;28;20031;-75
2021/09/28 06:51:02;;;;;;;8.30;5.72;;;13.70;99.90;;;;;;5025726;28;20030;-75
2021/09/28 06:53:27;;;;;;;8.32;6.00;;;13.70;99.90;;;;;;5029801;28;20033;-75
2021/09/28 06:55:53;;;;;;;8.73;5.80;;;13.70;99.90;;;;;;5045665;28;20036;-75
2021/09/28 06:58:18;;;;;;;6.93;6.10;;;13.60;99.90;;;;;;5041130;28;20021;-75
2021/09/28 07:00:44;;;;;;;8.70;6.45;;;13.60;99.90;;;;;;5025632;28;20030;-75
2021/09/28 07:03:09;;;;;;;10.80;6.60;;;13.40;99.90;;;;;;5047493;28;20361;-74
2021/09/28 07:05:35;;;;;;;9.77;6.50;;;13.60;99.90;;;;;;5042740;28;20033;-74
2021/09/28 07:08:00;;;;;;;8.40;6.00;;;13.80;99.90;;;;;;5030140;28;20398;-75
2021/09/28 07:10:26;;;;;;;7.72;5.70;;;13.80;99.90;;;;;;5027159;28;20021;-75
2021/09/28 07:12:52;;;;;;;11.32;6.60;;;13.70;99.90;;;;;;5017251;28;20025;-75
2021/09/28 07:15:17;;;;;;;11.60;6.55;;;13.50;99.90;;;;;;5027397;28;20071;-74
2021/09/28 07:17:44;;;;;;;9.75;6.20;;;13.50;99.90;;;;;;5023094;28;20021;-75
2021/09/28 07:20:11;;;;;;;11.18;6.05;;;13.70;99.90;;;;;;5042885;28;20086;-74
2021/09/28 07:22:37;;;;;;;9.98;6.30;;;13.70;99.90;;;;;;5050783;28;20021;-75
2021/09/28 07:25:03;;;;;;;11.68;6.13;;;13.50;99.90;;;;;;5042628;28;20491;-75
2021/09/28 07:27:29;;;;;;;9.77;5.30;;;13.70;99.90;;;;;;5038830;28;20025;-75
2021/09/28 07:29:55;;;;;;;7.43;5.82;;;13.80;99.90;;;;;;5042730;28;20025;-75
2021/09/28 07:32:22;;;;;;;9.25;5.93;;;13.80;99.90;;;;;;5033934;28;20029;-75
2021/09/28 07:34:47;;;;;;;8.00;5.80;;;13.80;99.90;;;;;;5042411;28;20029;-75
2021/09/28 07:37:13;;;;;;;7.68;5.80;;;13.80;99.90;;;;;;5047154;28;20071;-75
2021/09/28 07:39:38;;;;;;;11.50;5.68;;;13.50;99.90;;;;;;5027420;28;20020;-75
2021/09/28 07:42:05;;;;;;;6.82;5.45;;;13.60;99.90;;;;;;5040217;28;20430;-75
2021/09/28 07:44:30;;;;;;;7.30;5.35;;;13.50;99.90;;;;;;5024222;28;20514;-75
2021/09/28 07:46:58;;;;;;;6.30;4.80;;;13.70;99.90;;;;;;5029245;28;20040;-75
2021/09/28 07:49:23;;;;;;;8.65;5.20;;;13.70;99.90;;;;;;5044486;28;20475;-75
2021/09/28 07:51:49;;;;;;;7.43;5.20;;;13.80;99.90;;;;;;5039858;28;20044;-75
2021/09/28 07:54:14;;;;;;;5.35;4.60;;;13.90;99.90;;;;;;5042995;28;20442;-75
2021/09/28 07:56:42;;;;;;;7.53;5.10;;;13.80;99.90;;;;;;5033475;28;20021;-74
2021/09/28 07:59:08;;;;;;;10.90;5.70;;;14.00;99.90;;;;;;5044010;28;20375;-74
2021/09/28 08:01:34;;;;;;;8.02;4.97;;;14.00;99.90;;;;;;5039652;28;20049;-74
2021/09/28 08:04:00;;;;;;;6.60;5.32;;;14.00;99.90;;;;;;5025052;28;20069;-75
2021/09/28 08:06:25;;;;;;;7.57;4.78;;;14.10;99.90;;;;;;5048320;28;20447;-76
2021/09/28 08:08:51;;;;;;;8.68;4.60;;;14.10;99.90;;;;;;5042382;28;20029;-75
2021/09/28 08:11:16;;;;;;;5.97;4.80;;;14.00;99.90;;;;;;5034964;28;20383;-75
2021/09/28 08:13:42;;;;;;;6.30;4.57;;;14.00;99.90;;;;;;5024169;28;20492;-75
2021/09/28 08:16:07;;;;;;;7.28;5.00;;;14.00;99.90;;;;;;5046382;28;20060;-75
2021/09/28 08:18:33;;;;;;;9.50;4.80;;;14.10;99.90;;;;;;5043110;28;20029;-75
2021/09/28 08:20:58;;;;;;;6.80;4.68;;;14.30;99.90;;;;;;5039400;28;20025;-75
2021/09/28 08:23:25;;;;;;;5.70;4.97;;;14.20;99.90;;;;;;5042748;28;20536;-75
2021/09/28 08:29:08;;;;;;;6.35;4.60;;;14.30;99.90;;;;;;5023915;28;20533;-74
2021/09/28 08:31:20;;;;;;;8.05;4.28;;;14.10;99.90;;;;;;5032883;28;20044;-75
2021/09/28 08:33:45;;;;;;;4.57;4.10;;;14.20;99.90;;;;;;5045610;28;20029;-75
2021/09/28 08:36:11;;;;;;;7.38;4.90;;;14.30;99.90;;;;;;5041035;28;20032;-75
2021/09/28 08:38:36;;;;;;;5.45;4.82;;;14.10;99.90;;;;;;5021267;28;20056;-75
2021/09/28 08:41:02;;;;;;;6.10;4.13;;;14.10;99.90;;;;;;5039685;28;20041;-75
2021/09/28 08:43:28;;;;;;;6.22;4.60;;;14.20;99.90;;;;;;5047370;28;20468;-75
2021/09/28 08:45:54;;;;;;;8.05;4.22;;;14.30;99.90;;;;;;5034575;28;20037;-75
2021/09/28 08:48:22;;;;;;;4.75;4.18;;;14.40;99.90;;;;;;5021128;28;20032;-75
2021/09/28 08:50:49;;;;;;;8.50;4.47;;;14.40;99.90;;;;;;5043714;28;20510;-75
2021/09/28 08:53:19;;;;;;;6.38;4.35;;;14.30;99.90;;;;;;5045536;28;20033;-75
2021/09/28 08:55:45;;;;;;;6.38;3.78;;;14.70;99.90;;;;;;5041689;28;20124;-75
2021/09/28 08:58:24;;;;;;;4.50;4.10;;;15.00;99.90;;;;;;5038688;28;20511;-75
2021/09/28 09:00:51;;;;;;;6.20;4.38;;;14.90;99.90;;;;;;5023831;28;20018;-76
2021/09/28 09:03:28;;;;;;;5.28;4.00;;;15.00;99.90;;;;;;5045383;28;20372;-75
2021/09/28 09:05:55;;;;;;;5.22;4.20;;;14.60;99.90;;;;;;5044323;28;20079;-75
2021/09/28 09:08:26;;;;;;;5.75;4.03;;;14.70;99.90;;;;;;5038502;28;20056;-75
2021/09/28 09:11:11;;;;;;;5.18;3.60;;;14.70;99.90;;;;;;5039314;28;20104;-75
2021/09/28 09:13:39;;;;;;;5.13;3.80;;;14.70;99.90;;;;;;5040685;28;20471;-77
2021/09/28 09:16:07;;;;;;;7.30;3.80;;;14.40;99.90;;;;;;5038593;28;20018;-75
2021/09/28 09:18:35;;;;;;;4.72;3.58;;;14.20;99.90;;;;;;5043004;28;20017;-75
2021/09/28 09:21:05;;;;;;;4.90;3.65;;;14.40;99.90;;;;;;5045176;28;20025;-75
2021/09/28 09:23:34;;;;;;;7.03;3.78;;;14.80;99.90;;;;;;5042120;28;20025;-75
2021/09/28 09:26:09;;;;;;;6.15;3.33;;;15.20;99.90;;;;;;5038645;28;20021;-75
2021/09/28 09:28:48;;;;;;;5.28;3.55;;;15.50;99.90;;;;;;5022228;28;20040;-75
2021/09/28 09:31:21;;;;;;;4.90;3.00;;;16.00;99.90;;;;;;5040066;28;20506;-76
2021/09/28 09:33:48;;;;;;;6.40;2.88;;;15.70;99.90;;;;;;5050170;28;20078;-75
2021/09/28 09:36:18;;;;;;;4.40;2.92;;;15.40;99.90;;;;;;5031821;28;20021;-76
2021/09/28 09:38:51;;;;;;;5.13;2.50;;;15.10;99.90;;;;;;5045300;28;20534;-75
2021/09/28 09:41:16;;;;;;;3.78;2.92;;;15.30;99.90;;;;;;5041316;28;20127;-75
2021/09/28 09:43:43;;;;;;;4.38;3.50;;;15.50;99.90;;;;;;5035184;28;20472;-75
2021/09/28 09:46:20;;;;;;;4.10;3.45;;;15.30;99.90;;;;;;5046577;28;20017;-76
2021/09/28 09:48:48;;;;;;;;;;;15.20;99.90;;;;;;5043311;28;20292;-75
2021/09/28 09:51:16;;;;;;;6.32;3.15;;;15.10;99.90;;;;;;5025460;28;19997;-75
2021/09/28 09:53:54;;;;;;;4.78;3.08;;;14.90;99.90;;;;;;5041533;28;20033;-76
2021/09/28 09:56:21;;;;;;;4.55;3.20;;;15.10;99.90;;;;;;5042291;28;20034;-75
2021/09/28 09:58:47;;;;;;;6.63;3.35;;;15.40;99.90;;;;;;5048139;28;20026;-74
2021/09/28 10:01:13;;;;;;;6.18;3.05;;;15.60;99.90;;;;;;5036254;28;20033;-75
2021/09/28 10:03:40;;;;;;;5.63;2.78;;;15.80;99.90;;;;;;5047700;28;20079;-75
2021/09/28 10:06:06;;;;;;;4.07;3.13;;;15.90;99.90;;;;;;5031096;28;20491;-75
2021/09/28 10:08:33;;;;;;;5.28;2.55;;;15.60;99.90;;;;;;5043598;28;20029;-75
2021/09/28 10:11:00;;;;;;;5.72;2.60;;;15.60;99.90;;;;;;5040612;28;20075;-76
2021/09/28 10:13:48;;;;;;;4.38;2.65;;;15.40;99.90;;;;;;5025471;28;20501;-75
2021/09/28 10:16:37;;;;;;;3.75;2.63;;;15.70;99.90;;;;;;5042298;28;20041;-75
2021/09/28 10:19:24;;;;;;;3.25;2.45;;;15.80;99.90;;;;;;5035785;28;20507;-76
2021/09/28 10:21:49;;;;;;;4.75;3.00;;;15.80;99.90;;;;;;5037147;28;20029;-75
2021/09/28 10:24:24;;;;;;;4.55;2.65;;;16.00;99.90;;;;;;5041912;28;20098;-75
2021/09/28 10:26:55;;;;;;;4.18;2.40;;;15.40;99.90;;;;;;5025993;28;20045;-76
2021/09/28 10:29:41;;;;;;;4.88;2.50;;;15.20;99.90;;;;;;5030508;28;20104;-76
2021/09/28 10:32:24;;;;;;;3.38;2.22;;;15.20;99.90;;;;;;5049890;28;20036;-75
2021/09/28 10:35:04;;;;;;;5.22;2.35;;;15.40;99.90;;;;;;5054913;28;20029;-75
2021/09/28 10:37:42;;;;;;;3.10;1.90;;;15.50;99.90;;;;;;5023672;28;20044;-75
2021/09/28 10:40:08;;;;;;;4.55;1.95;;;15.90;99.90;;;;;;5041521;28;20537;-76
2021/09/28 10:42:59;;;;;;;2.45;2.05;;;15.80;99.90;;;;;;5029141;28;20512;-75
2021/09/28 10:45:33;;;;;;;4.90;2.17;;;15.60;99.90;;;;;;5039209;28;20021;-75
2021/09/28 10:48:08;;;;;;;4.35;2.20;;;15.90;99.90;;;;;;5054821;28;20021;-75
2021/09/28 10:50:35;;;;;;;4.20;1.80;;;16.20;99.90;;;;;;5041392;28;20075;-76
2021/09/28 10:53:03;;;;;;;3.90;1.80;;;16.40;99.90;;;;;;5023463;28;20032;-75
2021/09/28 10:55:31;;;;;;;3.80;2.08;;;16.80;99.90;;;;;;5047283;28;20025;-76
2021/09/28 10:57:59;;;;;;;3.40;2.17;;;16.60;99.90;;;;;;5048108;28;20471;-75
2021/09/28 11:00:27;;;;;;;6.20;2.67;;;16.30;99.90;;;;;;5041826;28;20056;-75
2021/09/28 11:03:00;;;;;;;4.80;2.20;;;16.30;99.90;;;;;;5023173;28;20022;-76
2021/09/28 11:05:28;;;;;;;4.80;2.08;;;16.40;99.90;;;;;;5028234;28;20095;-75
2021/09/28 11:07:54;;;;;;;4.05;2.20;;;16.60;99.90;;;;;;5029946;28;20025;-77
2021/09/28 11:10:20;;;;;;;3.50;1.55;;;16.70;99.90;;;;;;5025508;28;20029;-74
2021/09/28 11:12:46;;;;;;;4.57;2.60;;;16.60;99.90;;;;;;5040520;28;20140;-75
2021/09/28 11:15:25;;;;;;;3.10;1.70;;;16.30;99.90;;;;;;5027492;28;20104;-76
2021/09/28 11:17:51;;;;;;;2.50;1.77;;;16.00;99.90;;;;;;5047766;28;20022;-76
2021/09/28 11:20:30;;;;;;;6.30;2.10;;;16.10;99.90;;;;;;5044803;28;20047;-73
2021/09/28 11:23:11;;;;;;;3.22;1.90;;;16.10;99.90;;;;;;5029837;28;20483;-72
2021/09/28 11:25:38;;;;;;;7.43;2.17;;;16.60;99.90;;;;;;5042317;28;20084;-72
2021/09/28 11:28:06;;;;;;;5.57;1.67;;;17.10;99.90;;;;;;5042767;28;20040;-73
2021/09/28 11:30:34;;;;;;;3.75;1.88;;;17.30;99.90;;;;;;5041563;28;20519;-76
2021/09/28 11:33:01;;;;;;;3.42;1.65;;;16.80;99.90;;;;;;5023730;28;20037;-75
2021/09/28 11:35:27;;;;;;;3.15;1.95;;;16.50;99.90;;;;;;5043783;28;20049;-75
2021/09/28 11:37:54;;;;;;;2.65;1.92;;;16.50;99.90;;;;;;5043728;28;20060;-75
2021/09/28 11:40:19;;;;;;;4.35;1.92;;;16.60;99.90;;;;;;5024060;28;20039;-76
2021/09/28 11:42:45;;;;;;;2.30;1.83;;;16.30;99.90;;;;;;5024613;28;20455;-75
2021/09/28 11:45:10;;;;;;;2.95;1.88;;;16.20;99.90;;;;;;5042808;28;20357;-76
2021/09/28 11:47:40;;;;;;;2.50;1.77;;;16.30;99.90;;;;;;5042470;28;20112;-76
2021/09/28 11:50:06;;;;;;;3.13;1.90;;;16.40;99.90;;;;;;5042130;28;20104;-76
2021/09/28 11:52:35;;;;;;;4.80;2.05;;;17.10;99.90;;;;;;5016597;28;20056;-72
2021/09/28 11:55:00;;;;;;;2.50;1.98;;;17.50;99.90;;;;;;5015769;28;20499;-76
2021/09/28 11:57:28;;;;;;;2.92;2.05;;;18.80;99.90;;;;;;5026245;28;20020;-76
2021/09/28 11:59:54;;;;;;;3.53;2.00;;;18.50;99.90;;;;;;5039318;28;20078;-76
2021/09/28 12:02:21;;;;;;;4.00;2.17;;;18.70;99.90;;;;;;5024124;28;20388;-76
2021/09/28 12:10:18;;;;;;;3.33;1.80;;;18.10;99.90;;;;;;5053260;28;20017;-75
2021/09/28 12:12:44;;;;;;;3.50;1.80;;;18.40;99.90;;;;;;5034860;28;20013;-76
2021/09/28 12:15:11;;;;;;;7.65;1.98;;;18.40;99.90;;;;;;5052769;28;20502;-76
2021/09/28 12:17:39;;;;;;;3.97;2.22;;;18.20;99.90;;;;;;5052818;28;20103;-75
2021/09/28 12:20:07;;;;;;;2.45;1.80;;;18.00;99.90;;;;;;5052876;28;20530;-76
2021/09/28 12:22:34;;;;;;;3.05;1.52;;;18.20;99.90;;;;;;5034620;28;20540;-76
2021/09/28 12:25:14;;;;;;;4.32;1.90;;;18.80;99.90;;;;;;5052691;28;20044;-76
2021/09/28 12:28:07;;;;;;;5.57;1.90;;;18.70;99.90;;;;;;5052508;28;20044;-76
2021/09/28 12:30:36;;;;;;;4.95;1.83;;;18.80;99.90;;;;;;5049555;28;20061;-76
2021/09/28 12:33:05;;;;;;;2.67;1.80;;;19.90;99.90;;;;;;5032565;28;20067;-76
2021/09/28 12:35:36;;;;;;;3.65;2.17;;;20.20;99.90;;;;;;5014776;28;20541;-76
2021/09/28 12:38:05;;;;;;;2.70;1.85;;;20.20;99.90;;;;;;5032540;28;20021;-76
2021/09/28 12:40:38;;;;;;;6.47;2.13;;;19.90;99.90;;;;;;5032295;28;20022;-76
2021/09/28 12:43:07;;;;;;;4.00;1.70;;;19.70;99.90;;;;;;5032367;28;20026;-76
2021/09/28 12:45:56;;;;;;;3.63;1.90;;;20.50;99.90;;;;;;5051428;28;20021;-75
2021/09/28 12:48:24;;;;;;;3.33;2.05;;;20.70;99.90;;;;;;5052250;28;20391;-76
2021/09/28 12:51:04;;;;;;;8.23;2.22;;;21.20;99.90;;;;;;5034002;28;20086;-76
2021/09/28 12:53:30;;;;;;;4.13;2.00;;;21.20;99.90;;;;;;5038529;28;20103;-76